Time;durP1;ratioP1;P1;durP2;ratioP2;P2;SDS_P1;SDS_P2;PMS_P1;PMS_P2;Temp;Humidity;BMP_temperature;BMP_pressure;BME280_temperature;BME280_humidity;BME280_pressure;Samples;Min_cycle;Max_cycle;Signal;HPM_P1;HPM_P2
2022/05/14 00:01:58;;;;;;;;;;;;;;;-144.99;82.09;52393.06;4984862;28;19998;-73
2022/05/14 00:04:26;;;;;;;;;;;;;;;-144.99;81.71;52370.63;4981035;28;19992;-73
2022/05/14 00:06:52;;;;;;;;;;;;;;;-144.99;82.20;52317.66;4986304;28;20511;-73
2022/05/14 00:09:18;;;;;;;;;;;;;;;-144.99;82.25;52374.72;4983398;28;19992;-72
2022/05/14 00:14:28;;;;;;;;;;;;;;;-144.99;82.87;52342.09;4982562;28;20400;-73
2022/05/14 00:16:55;;;;;;;;;;;;;;;-144.99;82.98;52346.19;4983261;28;19991;-72
2022/05/14 00:19:22;;;;;;;;;;;;;;;-144.99;82.77;52350.25;4979344;28;19987;-73
2022/05/14 00:21:49;;;;;;;;;;;;;;;-144.99;83.18;52395.09;4985418;28;20519;-73
2022/05/14 00:24:16;;;;;;;;;;;;;;;-144.99;83.84;52346.19;4981922;28;20003;-73
2022/05/14 00:26:43;;;;;;;;;;;;;;;-144.99;84.29;52397.13;4984157;28;19983;-72
2022/05/14 00:29:09;;;;;;;;;;;;;;;-144.99;84.74;52364.53;4980773;28;20470;-74
2022/05/14 00:31:35;;;;;;;;;;;;;;;-144.99;84.68;52386.94;4981733;28;20151;-72
2022/05/14 00:34:02;;;;;;;;;;;;;;;-144.99;84.65;52362.50;4978794;28;19995;-73
2022/05/14 00:36:28;;;;;;;;;;;;;;;-144.99;84.55;52338.03;4981458;28;20187;-72
2022/05/14 00:38:56;;;;;;;;;;;;;;;-144.99;84.47;52358.41;4984292;28;20373;-72
2022/05/14 00:41:23;;;;;;;;;;;;;;;-144.99;84.50;52358.41;4987901;28;20435;-71
2022/05/14 00:43:50;;;;;;;;;;;;;;;-144.99;85.28;52342.09;4982376;28;19984;-73
2022/05/14 00:46:18;;;;;;;;;;;;;;;-144.99;84.66;52342.09;4984423;28;19973;-72
2022/05/14 00:48:45;;;;;;;;;;;;;;;-144.99;84.66;52354.34;4986383;28;19979;-72
2022/05/14 00:51:14;;;;;;;;;;;;;;;-144.99;85.11;52350.25;4983850;28;19941;-70
2022/05/14 00:53:44;;;;;;;;;;;;;;;-144.99;85.67;52374.72;4982981;28;19980;-71
2022/05/14 00:56:14;;;;;;;;;;;;;;;-144.99;85.74;52360.44;4982220;28;20075;-71
2022/05/14 00:58:43;;;;;;;;;;;;;;;-144.99;85.67;52382.88;4983240;28;20364;-72
2022/05/14 01:01:09;;;;;;;;;;;;;;;-144.99;85.59;52354.34;4983892;28;19977;-72
2022/05/14 01:03:35;;;;;;;;;;;;;;;-144.99;85.82;52386.94;4982584;28;19980;-71
2022/05/14 01:06:04;;;;;;;;;;;;;;;-144.99;86.07;52354.34;4985035;28;19976;-72
2022/05/14 01:08:31;;;;;;;;;;;;;;;-144.99;86.14;52333.94;4981665;28;19972;-72
2022/05/14 01:10:58;;;;;;;;;;;;;;;-144.99;87.16;52333.94;4984733;28;19996;-72
2022/05/14 01:13:26;;;;;;;;;;;;;;;-144.99;87.52;52358.41;4982617;28;19972;-72
2022/05/14 01:15:55;;;;;;;;;;;;;;;-144.99;87.13;52382.88;4984356;28;20000;-72
2022/05/14 01:18:23;;;;;;;;;;;;;;;-144.99;88.11;52403.25;4981020;28;20074;-72
2022/05/14 01:20:51;;;;;;;;;;;;;;;-144.99;89.39;52378.78;4982257;28;20005;-73
2022/05/14 01:23:22;;;;;;;;;;;;;;;-144.99;89.49;52368.59;4982279;28;19985;-72
2022/05/14 01:28:37;;;;;;;;;;;;;;;-144.99;89.00;52376.75;4983160;28;19990;-72
2022/05/14 01:31:03;;;;;;;;;;;;;;;-144.99;89.71;52344.16;4982506;28;20482;-72
2022/05/14 01:33:31;;;;;;;;;;;;;;;-144.99;90.09;52378.78;4641533;28;10000001;-73
2022/05/14 01:35:58;;;;;;;;;;;;;;;-144.99;90.23;52354.34;4987636;28;20170;-72
2022/05/14 01:38:24;;;;;;;;;;;;;;;-144.99;90.45;52374.72;4985268;28;19978;-72
2022/05/14 01:40:51;;;;;;;;;;;;;;;-144.99;89.83;52397.13;4980165;28;19976;-70
2022/05/14 01:43:18;;;;;;;;;;;;;;;-144.99;90.79;52340.06;4984586;28;19980;-71
2022/05/14 01:45:45;;;;;;;;;;;;;;;-144.99;91.46;52378.78;4995166;22;20005;-73
2022/05/14 01:48:12;;;;;;;;;;;;;;;-144.99;91.16;52342.09;4986329;28;19980;-73
2022/05/14 01:50:39;;;;;;;;;;;;;;;-144.99;91.25;52393.06;4994037;28;20483;-75
2022/05/14 01:53:05;;;;;;;;;;;;;;;-144.99;91.70;52374.72;4982984;28;19979;-74
2022/05/14 01:55:31;;;;;;;;;;;;;;;-144.99;91.68;52370.63;4987103;28;19988;-74
2022/05/14 01:57:58;;;;;;;;;;;;;;;-144.99;93.00;52344.16;4988142;28;19984;-74
2022/05/14 02:00:24;;;;;;;;;;;;;;;-144.99;93.03;52399.19;4987255;28;19976;-73
2022/05/14 02:02:53;;;;;;;;;;;;;;;-144.99;93.07;52376.75;4986967;28;20468;-75
2022/05/14 02:05:19;;;;;;;;;;;;;;;-144.99;93.29;52364.53;4987445;28;19987;-75
2022/05/14 02:07:46;;;;;;;;;;;;;;;-144.99;93.94;52376.75;4988442;28;19991;-74
2022/05/14 02:10:12;;;;;;;;;;;;;;;-144.99;94.01;52366.56;4987168;28;19995;-74
2022/05/14 02:12:40;;;;;;;;;;;;;;;-144.99;94.58;52391.03;4987806;28;19986;-74
2022/05/14 02:15:06;;;;;;;;;;;;;;;-144.99;95.02;52354.34;4983758;28;20041;-74
2022/05/14 02:17:33;;;;;;;;;;;;;;;-144.99;94.83;52366.56;4987414;28;19971;-74
2022/05/14 02:20:01;;;;;;;;;;;;;;;-144.99;95.55;52366.56;4987150;28;20020;-73
2022/05/14 02:22:27;;;;;;;;;;;;;;;-144.99;95.96;52350.25;4990620;28;19971;-74
2022/05/14 02:24:54;;;;;;;;;;;;;;;-144.99;96.63;52431.78;4987385;28;20078;-73
2022/05/14 02:27:20;;;;;;;;;;;;;;;-144.99;97.31;52366.56;4988484;28;20353;-74
2022/05/14 02:29:53;;;;;;;;;;;;;;;-144.99;96.83;52342.09;4987408;28;19977;-75
2022/05/14 02:32:21;;;;;;;;;;;;;;;-144.99;97.18;52358.41;4986592;28;19979;-74
2022/05/14 02:34:47;;;;;;;;;;;;;;;-144.99;97.20;52362.50;4986911;28;20065;-76
2022/05/14 02:37:16;;;;;;;;;;;;;;;-144.99;97.06;52370.63;4988388;28;19981;-75
2022/05/14 02:39:42;;;;;;;;;;;;;;;-144.99;97.60;52358.41;4988263;28;20341;-75
2022/05/14 02:42:09;;;;;;;;;;;;;;;-144.99;98.05;52382.88;4989158;28;19975;-75
2022/05/14 02:44:35;;;;;;;;;;;;;;;-144.99;98.13;52333.94;4984192;28;20478;-76
2022/05/14 02:47:01;;;;;;;;;;;;;;;-144.99;98.49;52382.88;4989018;28;19969;-75
2022/05/14 02:49:28;;;;;;;;;;;;;;;-144.99;98.41;52405.28;4988062;28;20333;-76
2022/05/14 02:51:54;;;;;;;;;;;;;;;-144.99;99.08;52382.88;4986562;28;19989;-74
2022/05/14 02:54:22;;;;;;;;;;;;;;;-144.99;99.43;52386.94;4986640;28;20384;-74
2022/05/14 02:56:48;;;;;;;;;;;;;;;-144.99;99.53;52358.41;4986849;28;20374;-73
2022/05/14 02:59:15;;;;;;;;;;;;;;;-144.99;100.00;52352.28;4990306;28;19971;-76
2022/05/14 03:01:47;;;;;;;;;;;;;;;-144.99;100.00;52386.94;5002453;28;20024;-74
2022/05/14 03:04:14;;;;;;;;;;;;;;;-144.99;100.00;52356.38;4999752;28;20563;-73
2022/05/14 03:06:40;;;;;;;;;;;;;;;-144.99;100.00;52374.72;4988480;28;19975;-73
2022/05/14 03:09:07;;;;;;;;;;;;;;;-144.99;100.00;52378.78;4988097;28;19975;-74
2022/05/14 03:11:34;;;;;;;;;;;;;;;-144.99;100.00;52386.94;4986190;28;20017;-73
2022/05/14 03:14:01;;;;;;;;;;;;;;;-144.99;100.00;52393.06;4987871;28;19982;-73
2022/05/14 03:16:28;;;;;;;;;;;;;;;-144.99;100.00;52362.50;4987056;28;19988;-73
2022/05/14 03:18:55;;;;;;;;;;;;;;;-144.99;100.00;52366.56;4988376;28;19971;-74
2022/05/14 03:21:21;;;;;;;;;;;;;;;-144.99;100.00;52350.25;4991285;28;20224;-74
2022/05/14 03:23:49;;;;;;;;;;;;;;;-144.99;100.00;52382.88;4991797;28;19980;-73
2022/05/14 03:26:15;;;;;;;;;;;;;;;-144.99;100.00;52346.19;4992584;28;19992;-73
2022/05/14 03:28:43;;;;;;;;;;;;;;;-144.99;100.00;52393.06;4989976;28;19970;-74
2022/05/14 03:31:09;;;;;;;;;;;;;;;-144.99;100.00;52382.88;4987984;28;20242;-73
2022/05/14 03:33:36;;;;;;;;;;;;;;;-144.99;100.00;52370.63;4990471;28;19981;-74
2022/05/14 03:36:03;;;;;;;;;;;;;;;-144.99;100.00;52366.56;4989829;28;19992;-73
2022/05/14 03:38:29;;;;;;;;;;;;;;;-144.99;100.00;52399.19;4990190;28;20059;-74
2022/05/14 03:40:56;;;;;;;;;;;;;;;-144.99;100.00;52411.41;4989813;28;19977;-74
2022/05/14 03:43:22;;;;;;;;;;;;;;;-144.99;100.00;52393.06;4989312;28;19974;-74
2022/05/14 03:45:50;;;;;;;;;;;;;;;-144.99;100.00;52380.84;4989543;28;20002;-74
2022/05/14 03:48:16;;;;;;;;;;;;;;;-144.99;100.00;52382.88;5007889;28;19972;-74
2022/05/14 03:50:42;;;;;;;;;;;;;;;-144.99;100.00;52368.59;5006863;28;20049;-75
2022/05/14 03:53:09;;;;;;;;;;;;;;;-144.99;100.00;52350.25;5003788;28;19971;-74
2022/05/14 03:55:35;;;;;;;;;;;;;;;-144.99;100.00;52350.25;4989064;28;20489;-74
2022/05/14 03:58:01;;;;;;;;;;;;;;;-144.99;100.00;52362.50;4989469;28;19979;-73
2022/05/14 04:00:27;;;;;;;;;;;;;;;-144.99;100.00;52399.19;4990172;28;19971;-74
2022/05/14 04:02:55;;;;;;;;;;;;;;;-144.99;100.00;52395.09;4989205;28;19980;-73
2022/05/14 04:05:22;;;;;;;;;;;;;;;-144.99;100.00;52366.56;4990232;28;20029;-74
2022/05/14 04:07:48;;;;;;;;;;;;;;;-144.99;100.00;52395.09;4993474;28;19975;-74
2022/05/14 04:10:16;;;;;;;;;;;;;;;-144.99;100.00;52325.81;4984232;28;19987;-72
2022/05/14 04:12:42;;;;;;;;;;;;;;;-144.99;100.00;52388.97;4993694;28;19989;-73
2022/05/14 04:15:09;;;;;;;;;;;;;;;-144.99;100.00;52391.03;4992800;28;20362;-74
2022/05/14 04:17:36;;;;;;;;;;;;;;;-144.99;100.00;52374.72;4986457;28;19976;-73
2022/05/14 04:20:04;;;;;;;;;;;;;;;-144.99;100.00;52407.31;4990451;28;19976;-73
2022/05/14 04:22:31;;;;;;;;;;;;;;;-144.99;100.00;52354.34;4990878;28;19979;-73
2022/05/14 04:24:57;;;;;;;;;;;;;;;-144.99;100.00;52386.94;4988530;28;20591;-73
2022/05/14 04:27:24;;;;;;;;;;;;;;;-144.99;100.00;52346.19;4988349;28;19977;-73
2022/05/14 04:29:50;;;;;;;;;;;;;;;-144.99;100.00;52395.09;4989335;28;19982;-74
2022/05/14 04:32:17;;;;;;;;;;;;;;;-144.99;100.00;52366.56;4988713;28;20019;-73
2022/05/14 04:34:43;;;;;;;;;;;;;;;-144.99;100.00;52346.19;4991435;28;19985;-73
2022/05/14 04:37:10;;;;;;;;;;;;;;;-144.99;100.00;52374.72;4990430;28;19977;-73
2022/05/14 04:39:37;;;;;;;;;;;;;;;-144.99;100.00;52399.19;4992268;28;19976;-73
2022/05/14 04:42:05;;;;;;;;;;;;;;;-144.99;100.00;52362.50;4991249;28;20020;-72
2022/05/14 04:44:32;;;;;;;;;;;;;;;-144.99;100.00;52333.94;4991951;28;19991;-73
2022/05/14 04:46:59;;;;;;;;;;;;;;;-144.99;100.00;52368.59;4991968;28;19961;-72
2022/05/14 04:49:25;;;;;;;;;;;;;;;-144.99;100.00;52338.03;4991084;28;20431;-73
2022/05/14 04:51:51;;;;;;;;;;;;;;;-144.99;100.00;52384.91;4991156;28;19996;-73
2022/05/14 04:54:19;;;;;;;;;;;;;;;-144.99;100.00;52350.25;4991601;28;19972;-73
2022/05/14 04:56:45;;;;;;;;;;;;;;;-144.99;100.00;52366.56;4990886;28;19985;-72
2022/05/14 04:59:12;;;;;;;;;;;;;;;-144.99;100.00;52325.81;4991568;28;20017;-74
2022/05/14 05:01:38;;;;;;;;;;;;;;;-144.99;100.00;52331.91;4992181;28;19981;-74
2022/05/14 05:04:04;;;;;;;;;;;;;;;-144.99;100.00;52354.34;4990583;28;19967;-73
2022/05/14 05:06:30;;;;;;;;;;;;;;;-144.99;100.00;52378.78;4989100;28;19987;-74
2022/05/14 05:08:56;;;;;;;;;;;;;;;-144.99;100.00;52346.19;4988602;28;20225;-73
2022/05/14 05:11:24;;;;;;;;;;;;;;;-144.99;100.00;52346.19;4989937;28;20009;-73
2022/05/14 05:13:51;;;;;;;;;;;;;;;-144.99;100.00;52346.19;4985277;28;20434;-73
2022/05/14 05:16:17;;;;;;;;;;;;;;;-144.99;100.00;52360.44;4987568;28;20400;-73
2022/05/14 05:18:44;;;;;;;;;;;;;;;-144.99;100.00;52384.91;4988038;28;19979;-73
2022/05/14 05:21:10;;;;;;;;;;;;;;;-144.99;100.00;52376.75;4988263;28;19971;-74
2022/05/14 05:23:36;;;;;;;;;;;;;;;-144.99;100.00;52368.59;4988323;28;19978;-74
2022/05/14 05:26:03;;;;;;;;;;;;;;;-144.99;100.00;52342.09;4987632;28;19986;-75
2022/05/14 05:28:30;;;;;;;;;;;;;;;-144.99;100.00;52305.41;4986173;28;19979;-74
2022/05/14 05:30:57;;;;;;;;;;;;;;;-144.99;100.00;52374.72;4986948;28;20094;-74
2022/05/14 05:33:25;;;;;;;;;;;;;;;-144.99;100.00;52333.94;4987123;28;19982;-74
2022/05/14 05:35:52;;;;;;;;;;;;;;;-144.99;100.00;52364.53;4987008;28;19992;-74
2022/05/14 05:38:18;;;;;;;;;;;;;;;-144.99;100.00;52338.03;4987251;28;20008;-74
2022/05/14 05:40:45;;;;;;;;;;;;;;;-144.99;100.00;52348.22;4987198;28;20188;-74
2022/05/14 05:43:11;;;;;;;;;;;;;;;-144.99;100.00;52305.41;4986673;28;20451;-74
2022/05/14 05:45:40;;;;;;;;;;;;;;;-144.99;100.00;52370.63;4997420;28;19997;-74
2022/05/14 05:48:07;;;;;;;;;;;;;;;-144.99;100.00;52342.09;5000706;28;20413;-73
2022/05/14 05:50:33;;;;;;;;;;;;;;;-144.99;100.00;52325.81;5001513;28;19977;-74
2022/05/14 05:53:00;;;;;;;;;;;;;;;-144.99;100.00;52321.72;4999766;28;19987;-74
2022/05/14 05:58:11;;;;;;;;;;;;;;;-144.99;100.00;52333.94;4996858;28;19978;-72
2022/05/14 06:00:38;;;;;;;;;;;;;;;-144.99;100.00;52317.66;4999257;28;19984;-72
2022/05/14 06:03:05;;;;;;;;;;;;;;;-144.99;100.00;52352.28;4989591;28;19953;-72
2022/05/14 06:05:32;;;;;;;;;;;;;;;-144.99;100.00;52362.50;4986828;28;20017;-72
2022/05/14 06:07:58;;;;;;;;;;;;;;;-144.99;100.00;52309.50;4988227;28;19971;-73
2022/05/14 06:10:25;;;;;;;;;;;;;;;-144.99;100.00;52327.84;4987163;28;19972;-73
2022/05/14 06:12:51;;;;;;;;;;;;;;;-144.99;100.00;52348.22;4989444;28;19989;-73
2022/05/14 06:15:18;;;;;;;;;;;;;;;-144.99;100.00;52325.81;4985230;28;19988;-73
2022/05/14 06:17:45;;;;;;;;;;;;;;;-144.99;100.00;52309.50;4988384;28;20001;-73
2022/05/14 06:20:14;;;;;;;;;;;;;;;-144.99;100.00;52338.03;4987963;28;19977;-73
2022/05/14 06:22:41;;;;;;;;;;;;;;;-144.99;100.00;52342.09;4986402;28;19994;-73
2022/05/14 06:25:09;;;;;;;;;;;;;;;-144.99;100.00;52342.09;4987176;28;20008;-73
2022/05/14 06:27:35;;;;;;;;;;;;;;;-144.99;100.00;52307.47;4987467;28;19988;-74
2022/05/14 06:30:02;;;;;;;;;;;;;;;-144.99;100.00;52325.81;4987547;28;20000;-73
2022/05/14 06:32:28;;;;;;;;;;;;;;;-144.99;99.43;52325.81;4988661;28;20051;-73
2022/05/14 06:34:54;;;;;;;;;;;;;;;-144.99;98.07;52333.94;4983663;28;19998;-73
2022/05/14 06:37:22;;;;;;;;;;;;;;;-144.99;96.87;52289.13;4987027;28;20408;-73
2022/05/14 06:39:48;;;;;;;;;;;;;;;-144.99;97.50;52333.94;4986781;28;19978;-73
2022/05/14 06:42:15;;;;;;;;;;;;;;;-144.99;95.84;52313.56;4988448;28;20448;-72
2022/05/14 06:44:41;;;;;;;;;;;;;;;-144.99;94.66;52321.72;4987201;28;19992;-73
2022/05/14 06:47:08;;;;;;;;;;;;;;;-144.99;94.19;52305.41;4987210;28;19926;-72
2022/05/14 06:49:35;;;;;;;;;;;;;;;-144.99;92.99;52305.41;4986303;28;19980;-72
2022/05/14 06:52:02;;;;;;;;;;;;;;;-144.99;91.81;52301.34;4989406;28;19993;-73
2022/05/14 06:54:31;;;;;;;;;;;;;;;-144.99;91.19;52303.38;4991418;28;20152;-76
2022/05/14 06:56:57;;;;;;;;;;;;;;;-144.99;90.54;52321.72;4990547;28;19979;-74
2022/05/14 06:59:23;;;;;;;;;;;;;;;-144.99;90.09;52301.34;4989803;28;19975;-73
2022/05/14 07:01:50;;;;;;;;;;;;;;;-144.99;88.65;52309.50;4988061;28;19972;-74
2022/05/14 07:07:03;;;;;;;;;;;;;;;-144.99;88.04;52325.81;4988491;28;20339;-72
2022/05/14 07:09:31;;;;;;;;;;;;;;;-144.99;87.30;52313.56;4986832;28;20009;-73
2022/05/14 07:11:59;;;;;;;;;;;;;;;-144.99;86.59;52291.16;4991203;28;20368;-73
2022/05/14 07:14:26;;;;;;;;;;;;;;;-144.99;85.35;52327.84;4989409;28;20423;-73
2022/05/14 07:16:53;;;;;;;;;;;;;;;-144.99;84.93;52289.13;4989785;28;19988;-74
2022/05/14 07:19:19;;;;;;;;;;;;;;;-144.99;83.48;52262.63;4991726;28;19972;-74
2022/05/14 07:21:46;;;;;;;;;;;;;;;-144.99;81.17;52344.16;4992361;28;19981;-73
2022/05/14 07:24:15;;;;;;;;;;;;;;;-144.99;79.92;52329.88;4988124;28;19978;-72
2022/05/14 07:26:43;;;;;;;;;;;;;;;-144.99;78.91;52293.19;4990576;28;19974;-73
2022/05/14 07:29:11;;;;;;;;;;;;;;;-144.99;78.47;52287.06;4990497;28;19994;-73
2022/05/14 07:31:38;;;;;;;;;;;;;;;-144.99;75.88;52256.50;4987181;28;19992;-73
2022/05/14 07:34:05;;;;;;;;;;;;;;;-144.99;74.71;52293.19;4990932;28;19963;-72
2022/05/14 07:36:33;;;;;;;;;;;;;;;-144.99;74.42;52248.34;4991797;28;19976;-72
2022/05/14 07:39:01;;;;;;;;;;;;;;;-144.99;72.72;52297.25;4990605;28;20005;-74
2022/05/14 07:41:28;;;;;;;;;;;;;;;-144.99;71.44;52256.50;4989700;28;19969;-73
2022/05/14 07:43:56;;;;;;;;;;;;;;;-144.99;70.40;52313.56;4990228;28;19963;-74
2022/05/14 07:46:26;;;;;;;;;;;;;;;-144.99;70.62;52262.63;4988932;28;20009;-74
2022/05/14 07:48:53;;;;;;;;;;;;;;;-144.99;69.79;52252.44;4990171;28;20001;-72
2022/05/14 07:51:19;;;;;;;;;;;;;;;-144.99;68.93;52230.00;5008636;23;19981;-77
2022/05/14 07:53:46;;;;;;;;;;;;;;;-144.99;67.57;52252.44;4984135;28;19969;-79
2022/05/14 07:56:13;;;;;;;;;;;;;;;-144.99;66.75;52248.34;4987120;28;19960;-76
2022/05/14 07:58:40;;;;;;;;;;;;;;;-144.99;64.94;52268.72;4984130;28;20337;-76
2022/05/14 08:01:08;;;;;;;;;;;;;;;-144.99;64.51;52227.97;4974387;28;19959;-77
2022/05/14 08:03:34;;;;;;;;;;;;;;;-144.99;62.28;52244.28;4964541;28;19947;-77
2022/05/14 08:06:01;;;;;;;;;;;;;;;-144.99;61.58;52219.81;4969676;28;19934;-77
2022/05/14 08:08:27;;;;;;;;;;;;;;;-144.99;61.74;52264.66;4967010;28;19937;-76
2022/05/14 08:10:54;;;;;;;;;;;;;;;-144.99;60.87;52227.97;4965608;28;20385;-77
2022/05/14 08:13:21;;;;;;;;;;;;;;;-144.99;59.84;52256.50;4965562;28;19975;-76
2022/05/14 08:15:48;;;;;;;;;;;;;;;-144.99;59.72;52248.34;4969601;28;19937;-77
2022/05/14 08:18:16;;;;;;;;;;;;;;;-144.99;59.29;52215.75;4968404;28;19955;-77
2022/05/14 08:20:43;;;;;;;;;;;;;;;-144.99;58.39;52219.81;4968189;28;20339;-77
2022/05/14 08:25:56;;;;;;;;;;;;;;;-144.99;58.39;52230.00;4967984;28;20456;-77
2022/05/14 08:28:22;;;;;;;;;;;;;;;-144.99;58.16;52211.66;4967292;28;19942;-77
2022/05/14 08:30:48;;;;;;;;;;;;;;;-144.99;57.77;52244.28;4969701;28;19926;-78
2022/05/14 08:33:16;;;;;;;;;;;;;;;-144.99;58.61;52248.34;4968172;28;19960;-76
2022/05/14 08:35:43;;;;;;;;;;;;;;;-144.99;58.34;52236.13;4974569;28;20465;-76
2022/05/14 08:38:10;;;;;;;;;;;;;;;-144.99;57.66;52215.75;4966470;28;20037;-78
2022/05/14 08:40:38;;;;;;;;;;;;;;;-144.99;57.17;52213.69;4965684;28;19926;-77
2022/05/14 08:43:06;;;;;;;;;;;;;;;-144.99;55.96;52203.50;4968453;28;19945;-77
2022/05/14 08:45:34;;;;;;;;;;;;;;;-144.99;55.86;52254.47;4965577;28;20398;-77
2022/05/14 08:48:02;;;;;;;;;;;;;;;-144.99;55.05;52215.75;4968765;28;20303;-76
2022/05/14 08:50:31;;;;;;;;;;;;;;;-144.99;53.73;52213.69;4966021;28;19949;-77
2022/05/14 08:53:00;;;;;;;;;;;;;;;-144.99;55.48;52280.97;4969243;28;19930;-76
2022/05/14 08:55:30;;;;;;;;;;;;;;;-144.99;56.89;52244.28;4968692;28;19938;-77
2022/05/14 08:58:02;;;;;;;;;;;;;;;-144.99;57.09;52238.16;4965863;28;19926;-77
2022/05/14 09:00:28;;;;;;;;;;;;;;;-144.99;56.79;52270.78;4969204;28;19926;-76
2022/05/14 09:02:55;;;;;;;;;;;;;;;-144.99;56.16;52219.81;4966883;28;19941;-78
2022/05/14 09:05:22;;;;;;;;;;;;;;;-144.99;56.02;52203.50;4967401;28;19971;-78
2022/05/14 09:07:51;;;;;;;;;;;;;;;-144.99;55.28;52244.28;4970106;28;20408;-78
2022/05/14 09:10:21;;;;;;;;;;;;;;;-144.99;55.19;52232.03;4968197;28;19989;-77
2022/05/14 09:12:50;;;;;;;;;;;;;;;-144.99;55.90;52252.44;4963060;28;19975;-76
2022/05/14 09:15:17;;;;;;;;;;;;;;;-144.99;54.97;52219.81;4963798;28;19926;-76
2022/05/14 09:17:44;;;;;;;;;;;;;;;-144.99;55.34;52238.16;4966547;28;19927;-77
2022/05/14 09:20:10;;;;;;;;;;;;;;;-144.99;55.34;52289.13;4965550;28;19926;-79
2022/05/14 09:22:40;;;;;;;;;;;;;;;-144.99;57.21;52256.50;4965602;28;19926;-78
2022/05/14 09:25:16;;;;;;;;;;;;;;;-144.99;58.63;52211.66;4965913;28;19943;-77
2022/05/14 09:27:44;;;;;;;;;;;;;;;-144.99;58.18;52248.34;4965047;28;19930;-77
2022/05/14 09:30:12;;;;;;;;;;;;;;;-144.99;57.01;52205.53;4968550;28;20365;-77
2022/05/14 09:32:41;;;;;;;;;;;;;;;-144.99;54.95;52232.03;4967571;28;19940;-78
2022/05/14 09:35:13;;;;;;;;;;;;;;;-144.99;54.34;52199.44;4968846;28;19965;-77
2022/05/14 09:37:41;;;;;;;;;;;;;;;-144.99;54.12;52207.59;4972089;28;19982;-77
2022/05/14 09:40:12;;;;;;;;;;;;;;;-144.99;54.59;52187.19;4973461;28;19973;-77
2022/05/14 09:42:41;;;;;;;;;;;;;;;-144.99;54.29;52183.13;4971752;28;19937;-77
2022/05/14 09:45:18;;;;;;;;;;;;;;;-144.99;53.45;52191.28;4974944;28;19932;-78
2022/05/14 09:47:44;;;;;;;;;;;;;;;-144.99;53.24;52170.91;4968196;28;20321;-77
2022/05/14 09:50:17;;;;;;;;;;;;;;;-144.99;50.98;52232.03;4958447;28;19941;-77
2022/05/14 09:52:54;;;;;;;;;;;;;;;-144.99;52.59;52215.75;4973475;28;19926;-78
2022/05/14 09:55:22;;;;;;;;;;;;;;;-144.99;54.04;52268.72;4971548;28;19930;-78
2022/05/14 09:57:50;;;;;;;;;;;;;;;-144.99;55.11;52256.50;4971871;28;19933;-76
2022/05/14 10:00:19;;;;;;;;;;;;;;;-144.99;55.32;52197.41;4965378;28;19927;-76
2022/05/14 10:02:51;;;;;;;;;;;;;;;-144.99;54.82;52181.09;4961999;28;19927;-79
2022/05/14 10:05:23;;;;;;;;;;;;;;;-144.99;52.50;52203.50;4965846;28;19930;-77
2022/05/14 10:07:53;;;;;;;;;;;;;;;-144.99;51.65;52181.09;4968223;28;20397;-77
2022/05/14 10:10:28;;;;;;;;;;;;;;;-144.99;51.54;52132.19;4968278;28;19933;-78
2022/05/14 10:12:58;;;;;;;;;;;;;;;-144.99;50.43;52207.59;4958623;28;20322;-78
2022/05/14 10:15:32;;;;;;;;;;;;;;;-144.99;51.36;52195.34;4970634;28;20080;-78
2022/05/14 10:18:04;;;;;;;;;;;;;;;-144.99;51.44;52219.81;4962768;28;19934;-80
2022/05/14 10:20:36;;;;;;;;;;;;;;;-144.99;52.60;52221.84;4962639;28;19934;-77
2022/05/14 10:29:15;;;;;;;;;;;;;;;-144.99;51.07;52203.50;4960787;28;20080;-77
2022/05/14 10:31:45;;;;;;;;;;;;;;;-144.99;50.93;52134.22;4970358;28;19949;-77
2022/05/14 10:34:15;;;;;;;;;;;;;;;-144.99;49.42;52166.81;4969610;28;19933;-78
2022/05/14 10:36:44;;;;;;;;;;;;;;;-144.99;49.64;52211.66;4974600;28;19933;-78
2022/05/14 10:39:14;;;;;;;;;;;;;;;-144.99;50.20;52211.66;4968049;28;20393;-77
2022/05/14 10:41:43;;;;;;;;;;;;;;;-144.99;50.92;52262.63;4969631;28;20451;-78
2022/05/14 10:44:11;;;;;;;;;;;;;;;-144.99;50.72;52238.16;4967267;28;19926;-76
2022/05/14 10:46:39;;;;;;;;;;;;;;;-144.99;49.87;52223.88;4968698;28;19926;-73
2022/05/14 10:49:09;;;;;;;;;;;;;;;-144.99;49.66;52209.63;4968475;28;19926;-75
2022/05/14 10:51:38;;;;;;;;;;;;;;;-144.99;49.47;52221.84;4966687;28;19930;-73
2022/05/14 10:54:06;;;;;;;;;;;;;;;-144.99;50.81;52264.66;4972345;28;19936;-76
2022/05/14 10:56:34;;;;;;;;;;;;;;;-144.99;50.87;52248.34;4971197;28;20005;-77
2022/05/14 10:59:05;;;;;;;;;;;;;;;-144.99;50.26;52232.03;4972900;28;20317;-75
2022/05/14 11:01:33;;;;;;;;;;;;;;;-144.99;50.36;52236.13;4966815;28;19930;-79
2022/05/14 11:04:01;;;;;;;;;;;;;;;-144.99;48.89;52134.22;4972392;28;19933;-76
2022/05/14 11:06:29;;;;;;;;;;;;;;;-144.99;49.11;52111.78;4968518;28;19926;-76
2022/05/14 11:08:56;;;;;;;;;;;;;;;-144.99;48.35;52130.13;4975350;28;19934;-77
2022/05/14 11:11:25;;;;;;;;;;;;;;;-144.99;47.30;52195.34;4964303;28;19937;-76
2022/05/14 11:14:02;;;;;;;;;;;;;;;-144.99;47.04;52166.81;4980731;28;19926;-78
2022/05/14 11:16:40;;;;;;;;;;;;;;;-144.99;46.98;52113.84;4971719;28;20429;-78
2022/05/14 11:19:07;;;;;;;;;;;;;;;-144.99;46.37;52152.56;4970096;28;20751;-77
2022/05/14 11:21:35;;;;;;;;;;;;;;;-144.99;47.17;52121.97;4961525;28;19930;-76
2022/05/14 11:24:02;;;;;;;;;;;;;;;-144.99;46.93;52179.06;4968578;28;19942;-75
2022/05/14 11:26:29;;;;;;;;;;;;;;;-144.99;46.06;52256.50;4972147;28;19985;-77
2022/05/14 11:28:56;;;;;;;;;;;;;;;-144.99;45.30;52097.53;4974673;28;19926;-76
2022/05/14 11:31:25;;;;;;;;;;;;;;;-144.99;44.54;52097.53;4969231;28;19930;-75
2022/05/14 11:33:54;;;;;;;;;;;;;;;-144.99;43.56;52101.59;4972397;28;19965;-76
2022/05/14 11:36:23;;;;;;;;;;;;;;;-144.99;43.66;52073.06;4971633;28;19955;-77
2022/05/14 11:38:53;;;;;;;;;;;;;;;-144.99;43.14;52054.72;4961379;28;19927;-78
2022/05/14 11:41:27;;;;;;;;;;;;;;;-144.99;42.53;52060.84;4966893;28;19933;-75
2022/05/14 11:43:54;;;;;;;;;;;;;;;-144.99;43.11;52093.44;4964436;28;20411;-76
2022/05/14 11:46:26;;;;;;;;;;;;;;;-144.99;42.73;52109.75;4967529;28;19933;-76
2022/05/14 11:48:56;;;;;;;;;;;;;;;-144.99;42.90;52085.31;4966315;28;19937;-77
2022/05/14 11:51:29;;;;;;;;;;;;;;;-144.99;42.95;52113.84;4971046;28;19930;-75
2022/05/14 11:54:00;;;;;;;;;;;;;;;-144.99;43.12;52073.06;4971050;28;19926;-76
2022/05/14 11:56:30;;;;;;;;;;;;;;;-144.99;42.31;52101.59;4965801;28;20294;-76
2022/05/14 11:59:01;;;;;;;;;;;;;;;-144.99;42.25;52121.97;4965521;28;19930;-76
2022/05/14 12:01:31;;;;;;;;;;;;;;;-144.99;42.18;52089.38;4965209;28;19926;-75
2022/05/14 12:04:01;;;;;;;;;;;;;;;-144.99;42.37;52089.38;4968524;28;20015;-76
2022/05/14 12:06:47;;;;;;;;;;;;;;;-144.99;41.86;52073.06;4970236;28;19926;-74
2022/05/14 12:09:22;;;;;;;;;;;;;;;-144.99;41.69;52101.59;4952266;28;19926;-77
2022/05/14 12:11:55;;;;;;;;;;;;;;;-144.99;40.91;52121.97;4965589;28;19988;-76
2022/05/14 12:14:28;;;;;;;;;;;;;;;-144.99;42.08;52148.47;4966335;28;19934;-76
2022/05/14 12:16:56;;;;;;;;;;;;;;;-144.99;42.55;52113.84;4972736;28;19993;-77
2022/05/14 12:19:25;;;;;;;;;;;;;;;-144.99;42.24;52162.75;4971801;28;19959;-76
2022/05/14 12:21:52;;;;;;;;;;;;;;;-144.99;43.17;52205.53;4969956;28;19937;-75
2022/05/14 12:24:20;;;;;;;;;;;;;;;-144.99;43.31;52195.34;4974057;28;20397;-79
2022/05/14 12:26:47;;;;;;;;;;;;;;;-144.99;43.11;52183.13;4980457;28;19926;-76
2022/05/14 12:29:15;;;;;;;;;;;;;;;-144.99;43.13;52179.06;4286793;28;10000749;-78
2022/05/14 12:34:34;;;;;;;;;;;;;;;-144.99;43.61;52240.19;4972324;28;19940;-76
2022/05/14 12:37:01;;;;;;;;;;;;;;;-144.99;43.73;52211.66;4970064;28;19969;-77
2022/05/14 12:39:30;;;;;;;;;;;;;;;-144.99;44.98;52174.97;4968525;28;19930;-77
2022/05/14 12:41:59;;;;;;;;;;;;;;;-144.99;43.97;52223.88;4980166;28;19949;-75
2022/05/14 12:44:26;;;;;;;;;;;;;;;-144.99;44.21;52260.56;4966936;28;19930;-76
2022/05/14 12:46:56;;;;;;;;;;;;;;;-144.99;44.35;52236.13;4968715;28;19937;-75
2022/05/14 12:49:23;;;;;;;;;;;;;;;-144.99;44.45;52207.59;4966435;28;20300;-75